createdAt,value
2022-12-09T00:00:38.660Z,7.57
2022-12-09T00:03:25.853Z,13.37
2022-12-09T00:06:17.632Z,11.13
2022-12-09T00:09:05.341Z,6.17
2022-12-09T00:11:53.976Z,4.00
2022-12-09T00:14:41.061Z,4.20
2022-12-09T00:17:28.648Z,4.20
2022-12-09T00:20:15.669Z,3.73
2022-12-09T00:23:03.128Z,3.43
2022-12-09T00:25:50.846Z,3.03
2022-12-09T00:28:39.507Z,4.50
2022-12-09T00:31:29.272Z,3.33
2022-12-09T00:34:16.177Z,2.80
2022-12-09T00:37:04.062Z,3.60
2022-12-09T00:39:51.454Z,4.73
2022-12-09T00:42:38.704Z,3.57
2022-12-09T00:45:27.107Z,3.90
2022-12-09T00:48:14.278Z,3.57
2022-12-09T00:51:01.147Z,4.00
2022-12-09T00:53:48.682Z,3.60
2022-12-09T00:56:36.028Z,4.00
2022-12-09T00:59:23.606Z,4.40
2022-12-09T01:02:12.226Z,4.10
2022-12-09T01:04:59.590Z,3.53
2022-12-09T01:07:46.528Z,4.90
2022-12-09T01:10:35.300Z,3.47
2022-12-09T01:13:22.242Z,4.30
2022-12-09T01:16:16.507Z,3.97
2022-12-09T01:19:08.022Z,4.70
2022-12-09T01:21:55.787Z,4.17
2022-12-09T01:24:43.207Z,4.03
2022-12-09T01:27:31.802Z,3.20
2022-12-09T01:30:19.243Z,4.47
2022-12-09T01:33:06.438Z,4.37
2022-12-09T01:35:55.028Z,4.97
2022-12-09T01:38:42.730Z,4.33
2022-12-09T01:41:30.273Z,4.43
2022-12-09T01:44:21.356Z,3.60
2022-12-09T01:47:23.669Z,4.87
2022-12-09T01:50:11.756Z,5.00
2022-12-09T01:53:00.569Z,5.23
2022-12-09T01:55:48.073Z,4.43
2022-12-09T01:58:36.212Z,4.40
2022-12-09T02:01:23.892Z,4.17
2022-12-09T02:04:11.153Z,5.63
2022-12-09T02:06:59.255Z,4.10
2022-12-09T02:09:53.434Z,4.87
2022-12-09T02:12:51.850Z,3.57
2022-12-09T02:15:44.765Z,4.77
2022-12-09T02:18:40.373Z,5.23
2022-12-09T02:21:33.496Z,4.83
2022-12-09T02:24:28.702Z,4.20
2022-12-09T02:27:22.359Z,4.90
2022-12-09T02:30:15.540Z,5.10
2022-12-09T02:33:32.237Z,4.47
2022-12-09T02:36:25.781Z,4.30
2022-12-09T02:39:12.899Z,5.23
2022-12-09T02:42:03.912Z,4.27
2022-12-09T02:44:52.864Z,3.93
2022-12-09T02:47:46.096Z,4.40
2022-12-09T02:50:38.106Z,4.83
2022-12-09T02:53:27.797Z,6.03
2022-12-09T02:56:16.952Z,5.17
2022-12-09T02:59:04.338Z,5.27
2022-12-09T03:02:02.268Z,4.50
2022-12-09T03:05:00.496Z,5.73
2022-12-09T03:07:56.929Z,5.40
2022-12-09T03:10:54.878Z,6.10
2022-12-09T03:13:51.176Z,6.43
2022-12-09T03:16:41.748Z,5.83
2022-12-09T03:19:33.154Z,5.70
2022-12-09T03:22:24.333Z,4.93
2022-12-09T03:25:17.153Z,5.90
2022-12-09T03:28:08.321Z,5.40
2022-12-09T03:31:00.254Z,6.63
2022-12-09T03:33:50.637Z,5.20
2022-12-09T03:36:40.429Z,5.20
2022-12-09T03:39:31.726Z,5.43
2022-12-09T03:42:23.259Z,5.87
2022-12-09T03:45:15.236Z,5.80
2022-12-09T03:48:03.970Z,6.37
2022-12-09T03:50:56.559Z,5.27
2022-12-09T03:53:48.062Z,6.67
2022-12-09T03:56:39.947Z,5.87
2022-12-09T03:59:32.304Z,5.33
2022-12-09T04:02:22.089Z,5.10
2022-12-09T04:05:10.289Z,5.60
2022-12-09T04:07:57.197Z,5.90
2022-12-09T04:10:44.570Z,6.07
2022-12-09T04:13:31.974Z,5.30
2022-12-09T04:16:19.399Z,6.17
2022-12-09T04:19:07.762Z,5.63
2022-12-09T04:21:54.913Z,5.43
2022-12-09T04:24:42.386Z,5.73
2022-12-09T04:27:29.421Z,6.07
2022-12-09T04:30:17.146Z,6.50
2022-12-09T04:33:04.621Z,6.10
2022-12-09T04:35:53.587Z,6.17
2022-12-09T04:38:42.007Z,7.13
2022-12-09T04:41:29.035Z,6.27
2022-12-09T04:44:16.287Z,5.93
2022-12-09T04:47:04.686Z,5.20
2022-12-09T04:49:52.392Z,6.97
2022-12-09T04:52:40.951Z,5.43
2022-12-09T04:55:28.388Z,6.63
2022-12-09T04:58:15.683Z,6.17
2022-12-09T05:01:08.177Z,7.03
2022-12-09T05:03:56.354Z,5.60
2022-12-09T05:06:43.503Z,5.20
2022-12-09T05:09:32.349Z,6.60
2022-12-09T05:12:19.954Z,6.20
2022-12-09T05:15:08.379Z,6.13
2022-12-09T05:17:55.677Z,5.10
2022-12-09T05:20:42.886Z,6.57
2022-12-09T05:23:30.324Z,5.83
2022-12-09T05:26:22.722Z,5.93
2022-12-09T05:29:09.880Z,5.67
2022-12-09T05:31:57.368Z,5.73
2022-12-09T05:34:44.463Z,6.07
2022-12-09T05:37:31.805Z,6.07
2022-12-09T05:40:19.470Z,6.63
2022-12-09T05:43:08.354Z,6.17
2022-12-09T05:45:55.501Z,4.70
2022-12-09T05:48:43.489Z,6.27
2022-12-09T05:51:31.905Z,5.57
2022-12-09T05:54:19.474Z,6.27
2022-12-09T05:57:06.649Z,6.00
2022-12-09T05:59:55.309Z,6.40
2022-12-09T06:02:42.678Z,5.53
2022-12-09T06:05:30.123Z,6.50
2022-12-09T06:08:17.520Z,6.37
2022-12-09T06:11:05.839Z,6.57
2022-12-09T06:13:53.068Z,5.53
2022-12-09T06:16:41.790Z,3.87
2022-12-09T06:19:29.705Z,6.00
2022-12-09T06:22:17.528Z,6.73
2022-12-09T06:25:05.804Z,6.40
2022-12-09T06:27:54.046Z,6.20
2022-12-09T06:30:42.067Z,6.10
2022-12-09T06:33:54.147Z,6.30
2022-12-09T06:36:38.746Z,5.20
2022-12-09T06:39:26.213Z,5.43
2022-12-09T06:42:13.168Z,7.10
2022-12-09T06:45:00.586Z,6.70
2022-12-09T06:47:49.194Z,6.03
2022-12-09T06:50:38.532Z,5.77
2022-12-09T06:53:25.921Z,5.57
2022-12-09T06:56:14.429Z,5.33
2022-12-09T06:59:02.011Z,6.40
2022-12-09T07:01:49.858Z,7.73
2022-12-09T07:04:37.614Z,5.13
2022-12-09T07:07:27.618Z,5.77
2022-12-09T07:10:15.217Z,5.30
2022-12-09T07:13:02.938Z,6.00
2022-12-09T07:15:49.885Z,5.87
2022-12-09T07:18:37.398Z,5.93
2022-12-09T07:21:25.117Z,6.40
2022-12-09T07:24:14.631Z,5.90
2022-12-09T07:27:07.501Z,5.87
2022-12-09T07:29:58.584Z,5.93
2022-12-09T07:32:45.798Z,5.10
2022-12-09T07:35:33.262Z,6.23
2022-12-09T07:38:20.701Z,5.80
2022-12-09T07:41:18.295Z,5.43
2022-12-09T07:44:05.821Z,7.47
2022-12-09T07:46:52.963Z,6.80
2022-12-09T07:49:41.452Z,7.23
2022-12-09T07:52:30.076Z,6.20
2022-12-09T07:55:17.857Z,6.93
2022-12-09T07:58:06.669Z,6.47
2022-12-09T08:00:54.023Z,6.23
2022-12-09T08:03:42.550Z,6.17
2022-12-09T08:06:31.469Z,6.07
2022-12-09T08:09:19.301Z,6.37
2022-12-09T08:12:07.621Z,6.60
2022-12-09T08:14:56.652Z,6.00
2022-12-09T08:17:44.240Z,6.40
2022-12-09T08:20:32.631Z,5.97
2022-12-09T08:23:20.127Z,5.63
2022-12-09T08:26:07.663Z,5.67
2022-12-09T08:28:55.052Z,6.63
2022-12-09T08:31:45.411Z,8.50
2022-12-09T08:34:32.781Z,4.63
2022-12-09T08:37:20.647Z,6.23
2022-12-09T08:40:09.592Z,6.47
2022-12-09T08:42:57.539Z,4.80
2022-12-09T08:45:45.184Z,6.00
2022-12-09T08:48:37.150Z,5.10
2022-12-09T08:51:24.883Z,5.80
2022-12-09T08:54:12.111Z,5.60
2022-12-09T08:57:00.441Z,5.53
2022-12-09T08:59:47.983Z,6.10
2022-12-09T09:02:36.418Z,5.60
2022-12-09T09:05:26.110Z,5.40
2022-12-09T09:08:13.612Z,5.47
2022-12-09T09:11:02.008Z,5.10
2022-12-09T09:13:51.682Z,5.33
2022-12-09T09:16:40.908Z,6.13
2022-12-09T09:19:28.610Z,5.53
2022-12-09T09:22:17.681Z,5.27
2022-12-09T09:25:05.628Z,5.97
2022-12-09T09:27:53.549Z,5.50
2022-12-09T09:30:41.502Z,4.73
2022-12-09T09:33:29.019Z,5.43
2022-12-09T09:36:20.801Z,6.03
2022-12-09T09:39:09.804Z,6.37
2022-12-09T09:42:05.951Z,5.23
2022-12-09T09:44:56.914Z,5.73
2022-12-09T09:47:49.623Z,5.93
2022-12-09T09:50:44.621Z,6.43
2022-12-09T09:53:32.996Z,5.77
2022-12-09T09:56:28.523Z,6.33
2022-12-09T09:59:22.986Z,6.03
2022-12-09T10:02:19.748Z,5.50
2022-12-09T10:05:16.456Z,6.17
2022-12-09T10:08:32.170Z,6.13
2022-12-09T10:11:26.378Z,5.23
2022-12-09T10:14:18.640Z,6.07
2022-12-09T10:17:17.520Z,4.73
2022-12-09T10:20:09.736Z,5.90
2022-12-09T10:23:01.306Z,5.23
2022-12-09T10:25:53.899Z,5.47
2022-12-09T10:28:47.755Z,5.73
2022-12-09T10:31:35.160Z,6.17
2022-12-09T10:34:22.304Z,5.53
2022-12-09T10:37:20.977Z,6.17
2022-12-09T10:40:23.955Z,4.77
2022-12-09T10:43:38.970Z,5.27
2022-12-09T10:46:28.380Z,5.63
2022-12-09T10:49:21.754Z,5.87
2022-12-09T10:52:10.020Z,5.67
2022-12-09T10:54:57.457Z,5.80
2022-12-09T10:57:44.612Z,4.90
2022-12-09T11:00:35.055Z,4.97
2022-12-09T11:03:30.648Z,7.83
2022-12-09T11:06:24.664Z,5.07
2022-12-09T11:09:23.448Z,5.57
2022-12-09T11:12:21.190Z,5.77
2022-12-09T11:15:26.428Z,6.20
2022-12-09T11:18:20.475Z,5.70
2022-12-09T11:21:29.106Z,6.03
2022-12-09T11:24:23.152Z,6.93
2022-12-09T11:27:31.190Z,6.77
2022-12-09T11:30:21.857Z,5.13
2022-12-09T11:33:25.346Z,6.03
2022-12-09T11:36:23.384Z,5.60
2022-12-09T11:39:22.928Z,4.87
2022-12-09T11:42:23.211Z,6.00
2022-12-09T11:45:24.705Z,6.07
2022-12-09T11:48:35.096Z,5.50
2022-12-09T11:51:29.444Z,6.60
2022-12-09T11:54:23.509Z,6.33
2022-12-09T11:57:21.562Z,6.23
2022-12-09T12:00:19.145Z,6.83
2022-12-09T12:03:14.794Z,6.07
2022-12-09T12:06:05.621Z,6.33
2022-12-09T12:08:59.277Z,5.77
2022-12-09T12:11:51.297Z,5.93
2022-12-09T12:14:42.445Z,6.10
2022-12-09T12:17:36.626Z,6.90
2022-12-09T12:20:28.439Z,5.93
2022-12-09T12:23:40.400Z,6.03
2022-12-09T12:26:34.235Z,6.50
2022-12-09T12:29:30.530Z,6.60
2022-12-09T12:32:31.347Z,6.53
2022-12-09T12:35:30.681Z,6.03
2022-12-09T12:38:24.301Z,6.87
2022-12-09T12:41:21.953Z,6.67
2022-12-09T12:44:42.362Z,5.67
2022-12-09T12:47:37.486Z,5.80
2022-12-09T12:50:46.416Z,5.93
2022-12-09T12:53:38.976Z,7.13
2022-12-09T12:56:31.969Z,5.13
2022-12-09T12:59:26.012Z,6.87
2022-12-09T13:02:30.593Z,5.63
2022-12-09T13:05:40.618Z,5.87
2022-12-09T13:08:34.570Z,5.73
2022-12-09T13:11:28.196Z,6.77
2022-12-09T13:14:21.996Z,5.73
2022-12-09T13:17:14.547Z,5.70
2022-12-09T13:20:05.555Z,6.03
2022-12-09T13:23:01.586Z,6.70
2022-12-09T13:25:56.874Z,5.83
2022-12-09T13:28:49.977Z,6.73
2022-12-09T13:31:45.864Z,5.57
2022-12-09T13:34:38.858Z,5.83
2022-12-09T13:37:56.528Z,6.43
2022-12-09T13:40:43.504Z,6.37
2022-12-09T13:43:33.799Z,6.33
2022-12-09T13:46:23.364Z,7.53
2022-12-09T13:49:17.895Z,6.43
2022-12-09T13:52:05.454Z,6.53
2022-12-09T13:54:52.351Z,6.13
2022-12-09T13:57:48.219Z,6.03
2022-12-09T14:00:35.886Z,6.90
2022-12-09T14:03:29.046Z,6.83
2022-12-09T14:06:25.906Z,7.43
2022-12-09T14:09:24.662Z,8.93
2022-12-09T14:12:13.233Z,8.53
2022-12-09T14:15:01.658Z,8.53
2022-12-09T14:18:26.435Z,6.40
2022-12-09T14:21:27.892Z,8.23
2022-12-09T14:24:36.739Z,6.27
2022-12-09T14:27:25.493Z,7.27
2022-12-09T14:30:45.854Z,6.80
2022-12-09T14:33:35.495Z,6.70
2022-12-09T14:36:29.775Z,6.80
2022-12-09T14:39:24.668Z,6.13
2022-12-09T14:42:24.089Z,5.77
2022-12-09T14:45:23.105Z,6.03
2022-12-09T14:48:12.042Z,6.20
2022-12-09T14:51:10.048Z,7.30
2022-12-09T14:54:00.401Z,7.03
2022-12-09T14:56:49.752Z,6.87
2022-12-09T14:59:37.499Z,6.50
2022-12-09T15:02:26.516Z,7.57
2022-12-09T15:05:18.302Z,6.10
2022-12-09T15:08:05.525Z,7.10
2022-12-09T15:10:54.403Z,6.77
2022-12-09T15:13:44.476Z,6.53
2022-12-09T15:16:31.861Z,7.63
2022-12-09T15:19:51.027Z,7.97
2022-12-09T15:22:31.640Z,9.60
2022-12-09T15:25:19.355Z,7.43
2022-12-09T15:28:15.629Z,7.73
2022-12-09T15:31:05.243Z,7.67
2022-12-09T15:33:55.600Z,6.17
2022-12-09T15:36:46.935Z,6.63
2022-12-09T15:39:41.131Z,6.23
2022-12-09T15:42:32.665Z,6.93
2022-12-09T15:45:24.379Z,7.37
2022-12-09T15:48:16.925Z,7.97
2022-12-09T15:51:07.453Z,7.50
2022-12-09T15:53:58.290Z,7.93
2022-12-09T15:56:48.045Z,6.67
2022-12-09T15:59:39.829Z,6.90
2022-12-09T16:02:32.064Z,6.37
2022-12-09T16:05:24.713Z,7.33
2022-12-09T16:08:12.468Z,7.40
2022-12-09T16:10:59.610Z,7.27
2022-12-09T16:13:59.883Z,7.83
2022-12-09T16:16:50.006Z,10.67
2022-12-09T16:19:38.675Z,8.67
2022-12-09T16:22:29.388Z,9.90
2022-12-09T16:25:23.065Z,8.47
2022-12-09T16:28:22.282Z,8.90
2022-12-09T16:31:19.226Z,6.93
2022-12-09T16:34:06.411Z,6.90
2022-12-09T16:36:57.539Z,7.80
2022-12-09T16:39:44.413Z,7.40
2022-12-09T16:42:36.580Z,7.90
2022-12-09T16:45:32.207Z,7.77
2022-12-09T16:48:20.629Z,6.67
2022-12-09T16:51:13.341Z,8.90
2022-12-09T16:54:02.284Z,7.13
2022-12-09T16:56:49.954Z,8.30
2022-12-09T16:59:38.206Z,8.30
2022-12-09T17:02:34.680Z,8.17
2022-12-09T17:05:21.808Z,8.33
2022-12-09T17:08:09.182Z,8.07
2022-12-09T17:10:57.777Z,8.67
2022-12-09T17:13:45.020Z,7.47
2022-12-09T17:16:34.045Z,7.23
2022-12-09T17:19:24.819Z,7.17
2022-12-09T17:22:12.035Z,7.43
2022-12-09T17:24:59.083Z,7.40
2022-12-09T17:27:47.388Z,7.47
2022-12-09T17:30:38.620Z,8.00
2022-12-09T17:33:26.149Z,7.97
2022-12-09T17:36:14.526Z,8.00
2022-12-09T17:39:03.411Z,7.93
2022-12-09T17:41:50.927Z,7.77
2022-12-09T17:44:38.906Z,7.27
2022-12-09T17:47:27.215Z,7.80
2022-12-09T17:50:14.317Z,6.70
2022-12-09T17:53:01.435Z,8.23
2022-12-09T17:55:48.682Z,8.80
2022-12-09T17:58:36.100Z,9.23
2022-12-09T18:01:25.869Z,7.83
2022-12-09T18:04:13.369Z,10.27
2022-12-09T18:07:00.652Z,7.73
2022-12-09T18:09:54.186Z,8.60
2022-12-09T18:12:41.375Z,7.23
2022-12-09T18:15:28.217Z,8.53
2022-12-09T18:18:16.835Z,8.40
2022-12-09T18:21:04.003Z,8.43
2022-12-09T18:23:51.034Z,9.63
2022-12-09T18:26:41.888Z,9.83
2022-12-09T18:29:29.689Z,9.50
2022-12-09T18:32:17.355Z,9.53
2022-12-09T18:35:05.949Z,9.10
2022-12-09T18:37:53.273Z,7.97
2022-12-09T18:41:00.902Z,7.53
2022-12-09T18:43:49.841Z,9.17
2022-12-09T18:46:39.276Z,8.33
2022-12-09T18:49:28.626Z,9.17
2022-12-09T18:52:17.167Z,9.37
2022-12-09T18:55:05.696Z,9.03
2022-12-09T18:57:52.675Z,9.93
2022-12-09T19:00:39.611Z,8.87
2022-12-09T19:03:27.164Z,9.10
2022-12-09T19:06:21.315Z,7.40
2022-12-09T19:09:12.366Z,8.90
2022-12-09T19:12:16.584Z,8.27
2022-12-09T19:15:07.535Z,7.57
2022-12-09T19:17:54.396Z,7.27
2022-12-09T19:20:41.466Z,8.13
2022-12-09T19:23:28.350Z,7.80
2022-12-09T19:26:19.198Z,7.20
2022-12-09T19:29:08.710Z,8.37
2022-12-09T19:31:57.209Z,9.27
2022-12-09T19:34:44.475Z,8.33
2022-12-09T19:37:31.941Z,8.60
2022-12-09T19:40:19.208Z,8.93
2022-12-09T19:43:07.489Z,8.00
2022-12-09T19:45:54.632Z,7.33
2022-12-09T19:48:44.445Z,8.23
2022-12-09T19:51:31.420Z,7.83
2022-12-09T19:54:25.154Z,6.97
2022-12-09T19:57:15.076Z,6.53
2022-12-09T20:00:03.504Z,8.10
2022-12-09T20:02:51.072Z,8.97
2022-12-09T20:05:49.927Z,6.63
2022-12-09T20:08:37.826Z,8.10
2022-12-09T20:11:26.812Z,9.60
2022-12-09T20:14:15.633Z,7.43
2022-12-09T20:17:03.989Z,7.93
2022-12-09T20:19:51.221Z,6.90
2022-12-09T20:22:39.015Z,6.93
2022-12-09T20:25:26.166Z,8.93
2022-12-09T20:28:13.015Z,7.70
2022-12-09T20:31:04.445Z,7.67
2022-12-09T20:33:56.422Z,7.67
2022-12-09T20:36:45.920Z,8.03
2022-12-09T20:39:33.186Z,8.63
2022-12-09T20:42:20.474Z,8.37
2022-12-09T20:45:09.193Z,6.60
2022-12-09T20:47:56.622Z,7.07
2022-12-09T20:50:45.712Z,7.80
2022-12-09T20:53:32.896Z,8.87
2022-12-09T20:56:21.277Z,8.33
2022-12-09T20:59:10.061Z,7.63
2022-12-09T21:01:58.305Z,8.97
2022-12-09T21:04:46.112Z,8.70
2022-12-09T21:07:35.610Z,8.60
2022-12-09T21:10:25.412Z,8.17
2022-12-09T21:13:14.885Z,8.80
2022-12-09T21:16:06.970Z,9.67
2022-12-09T21:18:56.874Z,6.97
2022-12-09T21:21:47.083Z,8.30
2022-12-09T21:24:35.596Z,8.67
2022-12-09T21:27:23.076Z,8.57
2022-12-09T21:30:11.153Z,8.40
2022-12-09T21:32:58.565Z,8.43
2022-12-09T21:35:47.836Z,8.53
2022-12-09T21:38:35.270Z,8.30
2022-12-09T21:41:26.205Z,8.50
2022-12-09T21:44:16.963Z,8.40
2022-12-09T21:47:04.381Z,7.93
2022-12-09T21:49:51.953Z,7.73
2022-12-09T21:52:39.188Z,6.60
2022-12-09T21:55:26.453Z,8.63
2022-12-09T21:58:15.099Z,6.07
2022-12-09T22:01:09.687Z,7.30
2022-12-09T22:03:57.851Z,8.60
2022-12-09T22:06:47.332Z,7.93
2022-12-09T22:09:34.289Z,7.77
2022-12-09T22:12:21.257Z,8.67
2022-12-09T22:15:12.245Z,7.53
2022-12-09T22:18:00.042Z,7.27
2022-12-09T22:21:23.193Z,7.83
2022-12-09T22:23:57.072Z,7.00
2022-12-09T22:26:45.289Z,6.97
2022-12-09T22:29:32.509Z,8.00
2022-12-09T22:32:21.421Z,7.30
2022-12-09T22:35:09.219Z,8.03
2022-12-09T22:37:59.070Z,7.83
2022-12-09T22:40:46.387Z,6.83
2022-12-09T22:43:37.889Z,8.47
2022-12-09T22:46:28.279Z,7.53
2022-12-09T22:49:17.740Z,8.27
2022-12-09T22:52:05.745Z,8.53
2022-12-09T22:54:52.740Z,8.77
2022-12-09T22:57:39.626Z,8.70
2022-12-09T23:00:26.660Z,10.10
2022-12-09T23:03:13.722Z,8.03
2022-12-09T23:06:03.911Z,8.20
2022-12-09T23:08:51.284Z,8.57
2022-12-09T23:11:38.614Z,10.07
2022-12-09T23:14:25.603Z,8.13
2022-12-09T23:17:13.030Z,8.53
2022-12-09T23:20:00.780Z,7.87
2022-12-09T23:22:49.728Z,8.33
2022-12-09T23:25:36.825Z,8.30
2022-12-09T23:28:23.635Z,8.80
2022-12-09T23:31:12.123Z,8.77
2022-12-09T23:33:59.922Z,7.83
2022-12-09T23:36:47.356Z,8.13
2022-12-09T23:39:36.416Z,9.17
2022-12-09T23:42:23.608Z,9.00
2022-12-09T23:45:11.706Z,9.60
2022-12-09T23:47:58.908Z,8.73
2022-12-09T23:50:45.986Z,8.83
2022-12-09T23:53:33.025Z,8.83
2022-12-09T23:56:23.963Z,8.03
2022-12-09T23:59:15.774Z,10.10
